sensor_id;sensor_type;location;lat;lon;timestamp;temperature;humidity
23231;DHT22;11784;49.818;8.632;2023-04-01T00:00:51;13.50;83.90
23231;DHT22;11784;49.818;8.632;2023-04-01T00:03:17;13.50;83.80
23231;DHT22;11784;49.818;8.632;2023-04-01T00:05:43;13.50;84.00
23231;DHT22;11784;49.818;8.632;2023-04-01T00:08:08;13.50;83.90
23231;DHT22;11784;49.818;8.632;2023-04-01T00:10:34;13.50;84.20
23231;DHT22;11784;49.818;8.632;2023-04-01T00:13:00;13.50;83.70
23231;DHT22;11784;49.818;8.632;2023-04-01T00:15:25;13.40;84.10
23231;DHT22;11784;49.818;8.632;2023-04-01T00:17:51;13.40;84.70
23231;DHT22;11784;49.818;8.632;2023-04-01T00:20:17;13.40;83.70
23231;DHT22;11784;49.818;8.632;2023-04-01T00:22:42;13.40;83.40
23231;DHT22;11784;49.818;8.632;2023-04-01T00:25:08;13.40;83.30
23231;DHT22;11784;49.818;8.632;2023-04-01T00:27:34;13.40;83.10
23231;DHT22;11784;49.818;8.632;2023-04-01T00:29:59;13.40;83.60
23231;DHT22;11784;49.818;8.632;2023-04-01T00:32:25;13.40;83.80
23231;DHT22;11784;49.818;8.632;2023-04-01T00:34:51;13.40;83.20
23231;DHT22;11784;49.818;8.632;2023-04-01T00:37:17;13.40;83.20
23231;DHT22;11784;49.818;8.632;2023-04-01T00:39:43;13.40;83.30
23231;DHT22;11784;49.818;8.632;2023-04-01T00:42:10;13.40;83.80
23231;DHT22;11784;49.818;8.632;2023-04-01T00:44:37;13.40;82.80
23231;DHT22;11784;49.818;8.632;2023-04-01T00:47:03;13.40;82.60
23231;DHT22;11784;49.818;8.632;2023-04-01T00:49:32;13.40;83.10
23231;DHT22;11784;49.818;8.632;2023-04-01T00:52:00;13.40;83.30
23231;DHT22;11784;49.818;8.632;2023-04-01T00:54:28;13.40;82.60
23231;DHT22;11784;49.818;8.632;2023-04-01T00:59:30;13.40;83.00
23231;DHT22;11784;49.818;8.632;2023-04-01T01:01:57;13.40;82.20
23231;DHT22;11784;49.818;8.632;2023-04-01T01:04:26;13.40;82.50
23231;DHT22;11784;49.818;8.632;2023-04-01T01:07:13;13.40;82.70
23231;DHT22;11784;49.818;8.632;2023-04-01T01:10:15;13.40;82.60
23231;DHT22;11784;49.818;8.632;2023-04-01T01:15:37;13.30;82.20
23231;DHT22;11784;49.818;8.632;2023-04-01T01:18:33;13.40;82.20
23231;DHT22;11784;49.818;8.632;2023-04-01T01:24:00;13.40;82.60
23231;DHT22;11784;49.818;8.632;2023-04-01T01:37:37;13.40;82.50
23231;DHT22;11784;49.818;8.632;2023-04-01T01:40:06;13.40;82.10
23231;DHT22;11784;49.818;8.632;2023-04-01T01:42:34;13.40;82.40
23231;DHT22;11784;49.818;8.632;2023-04-01T01:45:01;13.50;82.20
23231;DHT22;11784;49.818;8.632;2023-04-01T01:47:28;13.50;82.00
23231;DHT22;11784;49.818;8.632;2023-04-01T01:49:55;13.50;81.70
23231;DHT22;11784;49.818;8.632;2023-04-01T01:52:22;13.50;81.50
23231;DHT22;11784;49.818;8.632;2023-04-01T01:54:50;13.50;82.20
23231;DHT22;11784;49.818;8.632;2023-04-01T01:57:17;13.50;81.60
23231;DHT22;11784;49.818;8.632;2023-04-01T01:59:45;13.50;81.10
23231;DHT22;11784;49.818;8.632;2023-04-01T02:02:13;13.50;81.30
23231;DHT22;11784;49.818;8.632;2023-04-01T02:04:40;13.60;81.50
23231;DHT22;11784;49.818;8.632;2023-04-01T02:07:12;13.60;82.00
23231;DHT22;11784;49.818;8.632;2023-04-01T02:09:39;13.60;81.40
23231;DHT22;11784;49.818;8.632;2023-04-01T02:12:07;13.60;81.70
23231;DHT22;11784;49.818;8.632;2023-04-01T02:14:42;13.60;81.20
23231;DHT22;11784;49.818;8.632;2023-04-01T02:17:11;13.60;81.40
23231;DHT22;11784;49.818;8.632;2023-04-01T02:19:40;13.60;81.30
23231;DHT22;11784;49.818;8.632;2023-04-01T02:22:11;13.60;80.90
23231;DHT22;11784;49.818;8.632;2023-04-01T02:24:38;13.60;81.20
23231;DHT22;11784;49.818;8.632;2023-04-01T02:27:05;13.50;81.20
23231;DHT22;11784;49.818;8.632;2023-04-01T02:29:32;13.40;81.90
23231;DHT22;11784;49.818;8.632;2023-04-01T02:31:58;13.40;81.80
23231;DHT22;11784;49.818;8.632;2023-04-01T02:34:24;13.40;82.20
23231;DHT22;11784;49.818;8.632;2023-04-01T02:36:51;13.40;82.50
23231;DHT22;11784;49.818;8.632;2023-04-01T02:39:17;13.40;82.70
23231;DHT22;11784;49.818;8.632;2023-04-01T02:41:44;13.30;82.70
23231;DHT22;11784;49.818;8.632;2023-04-01T02:44:12;13.30;82.70
23231;DHT22;11784;49.818;8.632;2023-04-01T02:46:38;13.30;83.30
23231;DHT22;11784;49.818;8.632;2023-04-01T02:49:04;13.30;83.20
23231;DHT22;11784;49.818;8.632;2023-04-01T02:51:30;13.30;82.70
23231;DHT22;11784;49.818;8.632;2023-04-01T02:53:55;13.30;83.10
23231;DHT22;11784;49.818;8.632;2023-04-01T02:56:21;13.30;82.90
23231;DHT22;11784;49.818;8.632;2023-04-01T02:58:47;13.30;82.70
23231;DHT22;11784;49.818;8.632;2023-04-01T03:01:13;13.30;82.40
23231;DHT22;11784;49.818;8.632;2023-04-01T03:03:39;13.30;82.70
23231;DHT22;11784;49.818;8.632;2023-04-01T03:06:06;13.30;83.00
23231;DHT22;11784;49.818;8.632;2023-04-01T03:08:32;13.20;82.90
23231;DHT22;11784;49.818;8.632;2023-04-01T03:10:57;13.30;83.10
23231;DHT22;11784;49.818;8.632;2023-04-01T03:13:23;13.30;82.80
23231;DHT22;11784;49.818;8.632;2023-04-01T03:15:48;13.30;82.90
23231;DHT22;11784;49.818;8.632;2023-04-01T03:18:14;13.20;83.40
23231;DHT22;11784;49.818;8.632;2023-04-01T03:20:39;13.20;83.40
23231;DHT22;11784;49.818;8.632;2023-04-01T03:23:05;13.20;83.30
23231;DHT22;11784;49.818;8.632;2023-04-01T03:25:30;13.20;83.90
23231;DHT22;11784;49.818;8.632;2023-04-01T03:27:56;13.20;83.70
23231;DHT22;11784;49.818;8.632;2023-04-01T03:30:24;13.10;83.90
23231;DHT22;11784;49.818;8.632;2023-04-01T03:32:50;13.10;83.80
23231;DHT22;11784;49.818;8.632;2023-04-01T03:35:15;13.10;84.50
23231;DHT22;11784;49.818;8.632;2023-04-01T03:37:41;13.10;84.50
23231;DHT22;11784;49.818;8.632;2023-04-01T03:40:07;13.10;84.80
23231;DHT22;11784;49.818;8.632;2023-04-01T03:42:32;13.10;84.70
23231;DHT22;11784;49.818;8.632;2023-04-01T03:44:58;13.10;84.60
23231;DHT22;11784;49.818;8.632;2023-04-01T03:47:24;13.10;84.60
23231;DHT22;11784;49.818;8.632;2023-04-01T03:49:49;13.10;84.60
23231;DHT22;11784;49.818;8.632;2023-04-01T03:52:15;13.10;84.40
23231;DHT22;11784;49.818;8.632;2023-04-01T03:54:40;13.10;84.90
23231;DHT22;11784;49.818;8.632;2023-04-01T03:57:06;13.00;84.40
23231;DHT22;11784;49.818;8.632;2023-04-01T03:59:34;13.00;84.80
23231;DHT22;11784;49.818;8.632;2023-04-01T04:01:59;13.00;84.60
23231;DHT22;11784;49.818;8.632;2023-04-01T04:04:25;13.00;84.50
23231;DHT22;11784;49.818;8.632;2023-04-01T04:06:51;13.00;84.70
23231;DHT22;11784;49.818;8.632;2023-04-01T04:09:17;13.00;84.60
23231;DHT22;11784;49.818;8.632;2023-04-01T04:11:42;13.00;84.70
23231;DHT22;11784;49.818;8.632;2023-04-01T04:14:08;13.00;84.40
23231;DHT22;11784;49.818;8.632;2023-04-01T04:16:35;13.00;84.30
23231;DHT22;11784;49.818;8.632;2023-04-01T04:19:02;13.10;84.30
23231;DHT22;11784;49.818;8.632;2023-04-01T04:21:28;13.10;84.10
23231;DHT22;11784;49.818;8.632;2023-04-01T04:23:56;13.10;84.00
23231;DHT22;11784;49.818;8.632;2023-04-01T04:26:23;13.10;83.80
23231;DHT22;11784;49.818;8.632;2023-04-01T04:28:48;13.10;83.70
23231;DHT22;11784;49.818;8.632;2023-04-01T04:31:19;13.10;83.20
23231;DHT22;11784;49.818;8.632;2023-04-01T04:33:45;13.10;83.10
23231;DHT22;11784;49.818;8.632;2023-04-01T04:36:11;13.10;83.00
23231;DHT22;11784;49.818;8.632;2023-04-01T04:38:37;13.10;82.80
23231;DHT22;11784;49.818;8.632;2023-04-01T04:41:02;13.10;82.90
23231;DHT22;11784;49.818;8.632;2023-04-01T04:43:28;13.10;83.10
23231;DHT22;11784;49.818;8.632;2023-04-01T04:45:53;13.10;83.20
23231;DHT22;11784;49.818;8.632;2023-04-01T04:48:19;13.10;83.00
23231;DHT22;11784;49.818;8.632;2023-04-01T04:50:49;13.20;82.90
23231;DHT22;11784;49.818;8.632;2023-04-01T04:53:16;13.10;82.80
23231;DHT22;11784;49.818;8.632;2023-04-01T04:55:44;13.10;82.80
23231;DHT22;11784;49.818;8.632;2023-04-01T04:58:09;13.20;83.20
23231;DHT22;11784;49.818;8.632;2023-04-01T05:00:35;13.10;82.90
23231;DHT22;11784;49.818;8.632;2023-04-01T05:03:01;13.20;82.90
23231;DHT22;11784;49.818;8.632;2023-04-01T05:05:26;13.20;82.90
23231;DHT22;11784;49.818;8.632;2023-04-01T05:07:52;13.20;83.00
23231;DHT22;11784;49.818;8.632;2023-04-01T05:10:17;13.20;82.70
23231;DHT22;11784;49.818;8.632;2023-04-01T05:12:43;13.10;82.90
23231;DHT22;11784;49.818;8.632;2023-04-01T05:15:08;13.10;83.00
23231;DHT22;11784;49.818;8.632;2023-04-01T05:17:34;13.10;83.00
23231;DHT22;11784;49.818;8.632;2023-04-01T05:20:00;13.10;83.20
23231;DHT22;11784;49.818;8.632;2023-04-01T05:22:26;13.00;83.50
23231;DHT22;11784;49.818;8.632;2023-04-01T05:24:51;13.00;84.10
23231;DHT22;11784;49.818;8.632;2023-04-01T05:27:17;13.00;83.90
23231;DHT22;11784;49.818;8.632;2023-04-01T05:29:42;13.00;84.40
23231;DHT22;11784;49.818;8.632;2023-04-01T05:32:08;12.90;84.10
23231;DHT22;11784;49.818;8.632;2023-04-01T05:34:33;12.90;84.50
23231;DHT22;11784;49.818;8.632;2023-04-01T05:36:59;13.00;84.30
23231;DHT22;11784;49.818;8.632;2023-04-01T05:39:24;13.00;84.50
23231;DHT22;11784;49.818;8.632;2023-04-01T05:41:50;13.00;84.10
23231;DHT22;11784;49.818;8.632;2023-04-01T05:44:15;13.00;84.10
23231;DHT22;11784;49.818;8.632;2023-04-01T05:46:41;13.00;84.60
23231;DHT22;11784;49.818;8.632;2023-04-01T05:49:07;13.00;84.10
23231;DHT22;11784;49.818;8.632;2023-04-01T05:51:33;13.00;84.00
23231;DHT22;11784;49.818;8.632;2023-04-01T05:53:58;13.00;84.00
23231;DHT22;11784;49.818;8.632;2023-04-01T05:56:24;13.00;83.60
23231;DHT22;11784;49.818;8.632;2023-04-01T05:58:52;13.00;84.00
23231;DHT22;11784;49.818;8.632;2023-04-01T06:01:19;13.00;84.00
23231;DHT22;11784;49.818;8.632;2023-04-01T06:03:44;13.00;84.20
23231;DHT22;11784;49.818;8.632;2023-04-01T06:06:25;13.00;83.90
23231;DHT22;11784;49.818;8.632;2023-04-01T06:08:52;13.00;84.00
23231;DHT22;11784;49.818;8.632;2023-04-01T06:19:34;13.10;83.60
23231;DHT22;11784;49.818;8.632;2023-04-01T06:22:22;13.10;83.60
23231;DHT22;11784;49.818;8.632;2023-04-01T06:28:14;13.10;83.90
23231;DHT22;11784;49.818;8.632;2023-04-01T06:30:47;13.10;83.50
23231;DHT22;11784;49.818;8.632;2023-04-01T06:36:19;13.10;83.80
23231;DHT22;11784;49.818;8.632;2023-04-01T06:39:04;13.20;83.50
23231;DHT22;11784;49.818;8.632;2023-04-01T06:41:54;13.20;83.60
23231;DHT22;11784;49.818;8.632;2023-04-01T06:44:35;13.20;83.60
23231;DHT22;11784;49.818;8.632;2023-04-01T06:50:02;13.20;83.20
23231;DHT22;11784;49.818;8.632;2023-04-01T06:52:48;13.30;83.10
23231;DHT22;11784;49.818;8.632;2023-04-01T06:55:36;13.30;83.30
23231;DHT22;11784;49.818;8.632;2023-04-01T06:58:05;13.30;83.60
23231;DHT22;11784;49.818;8.632;2023-04-01T07:00:39;13.20;83.20
23231;DHT22;11784;49.818;8.632;2023-04-01T07:05:44;13.20;83.20
23231;DHT22;11784;49.818;8.632;2023-04-01T07:08:16;13.20;83.50
23231;DHT22;11784;49.818;8.632;2023-04-01T07:10:47;13.30;83.80
23231;DHT22;11784;49.818;8.632;2023-04-01T07:13:26;13.30;83.50
23231;DHT22;11784;49.818;8.632;2023-04-01T07:16:19;13.30;82.90
23231;DHT22;11784;49.818;8.632;2023-04-01T07:18:47;13.30;83.50
23231;DHT22;11784;49.818;8.632;2023-04-01T07:21:36;13.30;83.00
23231;DHT22;11784;49.818;8.632;2023-04-01T07:24:32;13.30;83.20
23231;DHT22;11784;49.818;8.632;2023-04-01T07:26:59;13.30;83.60
23231;DHT22;11784;49.818;8.632;2023-04-01T07:29:25;13.30;84.00
23231;DHT22;11784;49.818;8.632;2023-04-01T07:40:52;13.60;84.10
23231;DHT22;11784;49.818;8.632;2023-04-01T07:43:52;13.70;84.20
23231;DHT22;11784;49.818;8.632;2023-04-01T07:46:29;13.80;84.00
23231;DHT22;11784;49.818;8.632;2023-04-01T07:49:06;13.90;83.10
23231;DHT22;11784;49.818;8.632;2023-04-01T07:55:17;14.10;82.60
23231;DHT22;11784;49.818;8.632;2023-04-01T07:58:10;14.10;82.60
23231;DHT22;11784;49.818;8.632;2023-04-01T08:00:51;14.00;83.00
23231;DHT22;11784;49.818;8.632;2023-04-01T08:03:47;14.00;82.70
23231;DHT22;11784;49.818;8.632;2023-04-01T08:06:28;14.00;82.90
23231;DHT22;11784;49.818;8.632;2023-04-01T08:20:51;14.00;83.00
23231;DHT22;11784;49.818;8.632;2023-04-01T08:23:24;14.00;83.30
23231;DHT22;11784;49.818;8.632;2023-04-01T08:26:02;14.00;83.00
23231;DHT22;11784;49.818;8.632;2023-04-01T08:28:37;14.10;83.10
23231;DHT22;11784;49.818;8.632;2023-04-01T08:31:21;14.00;83.50
23231;DHT22;11784;49.818;8.632;2023-04-01T08:33:49;14.10;85.00
23231;DHT22;11784;49.818;8.632;2023-04-01T08:36:23;14.00;86.40
23231;DHT22;11784;49.818;8.632;2023-04-01T08:39:06;14.00;85.70
23231;DHT22;11784;49.818;8.632;2023-04-01T08:59:24;13.90;88.20
23231;DHT22;11784;49.818;8.632;2023-04-01T09:01:51;13.90;89.10
23231;DHT22;11784;49.818;8.632;2023-04-01T09:10:26;13.90;89.30
23231;DHT22;11784;49.818;8.632;2023-04-01T09:16:16;14.00;90.10
23231;DHT22;11784;49.818;8.632;2023-04-01T09:19:05;14.00;89.20
23231;DHT22;11784;49.818;8.632;2023-04-01T09:22:09;13.90;89.50
23231;DHT22;11784;49.818;8.632;2023-04-01T09:28:10;13.90;90.30
23231;DHT22;11784;49.818;8.632;2023-04-01T09:31:11;13.90;90.40
23231;DHT22;11784;49.818;8.632;2023-04-01T09:44:57;13.80;92.00
23231;DHT22;11784;49.818;8.632;2023-04-01T09:56:29;13.80;92.60
23231;DHT22;11784;49.818;8.632;2023-04-01T10:05:01;13.70;92.90
23231;DHT22;11784;49.818;8.632;2023-04-01T10:10:59;13.70;93.80
23231;DHT22;11784;49.818;8.632;2023-04-01T10:14:00;13.70;94.00
23231;DHT22;11784;49.818;8.632;2023-04-01T10:25:23;13.90;93.60
23231;DHT22;11784;49.818;8.632;2023-04-01T10:36:47;14.20;93.20
23231;DHT22;11784;49.818;8.632;2023-04-01T10:39:31;14.10;93.10
23231;DHT22;11784;49.818;8.632;2023-04-01T10:42:38;14.20;93.30
23231;DHT22;11784;49.818;8.632;2023-04-01T10:48:13;14.20;93.20
23231;DHT22;11784;49.818;8.632;2023-04-01T10:56:34;14.30;93.80
23231;DHT22;11784;49.818;8.632;2023-04-01T11:10:54;14.40;93.70
23231;DHT22;11784;49.818;8.632;2023-04-01T11:22:06;14.40;93.80
23231;DHT22;11784;49.818;8.632;2023-04-01T11:24:59;14.40;93.90
23231;DHT22;11784;49.818;8.632;2023-04-01T11:30:02;14.40;94.10
23231;DHT22;11784;49.818;8.632;2023-04-01T11:38:04;14.50;94.30
23231;DHT22;11784;49.818;8.632;2023-04-01T11:40:41;14.50;94.20
23231;DHT22;11784;49.818;8.632;2023-04-01T11:43:34;14.50;94.00
23231;DHT22;11784;49.818;8.632;2023-04-01T11:46:16;14.40;94.00
23231;DHT22;11784;49.818;8.632;2023-04-01T11:54:39;14.20;95.30
23231;DHT22;11784;49.818;8.632;2023-04-01T12:00:14;14.20;95.60
23231;DHT22;11784;49.818;8.632;2023-04-01T12:07:59;14.10;96.30
23231;DHT22;11784;49.818;8.632;2023-04-01T12:13:50;14.10;96.90
23231;DHT22;11784;49.818;8.632;2023-04-01T12:19:44;14.20;97.10
23231;DHT22;11784;49.818;8.632;2023-04-01T12:22:44;14.30;97.00
23231;DHT22;11784;49.818;8.632;2023-04-01T12:28:45;14.50;97.10
23231;DHT22;11784;49.818;8.632;2023-04-01T12:31:19;14.60;96.60
23231;DHT22;11784;49.818;8.632;2023-04-01T12:34:09;14.70;95.50
23231;DHT22;11784;49.818;8.632;2023-04-01T12:42:44;14.80;93.70
23231;DHT22;11784;49.818;8.632;2023-04-01T12:48:10;14.80;93.40
23231;DHT22;11784;49.818;8.632;2023-04-01T12:51:59;14.80;93.60
23231;DHT22;11784;49.818;8.632;2023-04-01T12:54:33;14.70;93.30
23231;DHT22;11784;49.818;8.632;2023-04-01T13:08:38;14.50;94.20
23231;DHT22;11784;49.818;8.632;2023-04-01T13:11:38;14.50;94.80
23231;DHT22;11784;49.818;8.632;2023-04-01T13:17:22;14.30;95.80
23231;DHT22;11784;49.818;8.632;2023-04-01T13:25:09;14.20;96.20
23231;DHT22;11784;49.818;8.632;2023-04-01T13:27:44;14.20;95.90
23231;DHT22;11784;49.818;8.632;2023-04-01T13:30:24;14.10;96.10
23231;DHT22;11784;49.818;8.632;2023-04-01T13:40:59;14.10;95.90
23231;DHT22;11784;49.818;8.632;2023-04-01T13:43:49;14.10;96.10
23231;DHT22;11784;49.818;8.632;2023-04-01T13:49:38;14.10;96.60
23231;DHT22;11784;49.818;8.632;2023-04-01T14:04:17;14.40;96.10
23231;DHT22;11784;49.818;8.632;2023-04-01T14:09:58;14.60;95.00
23231;DHT22;11784;49.818;8.632;2023-04-01T14:23:16;14.70;94.40
23231;DHT22;11784;49.818;8.632;2023-04-01T14:28:56;14.70;94.20
23231;DHT22;11784;49.818;8.632;2023-04-01T14:31:38;14.70;94.10
23231;DHT22;11784;49.818;8.632;2023-04-01T14:37:07;14.70;94.20
23231;DHT22;11784;49.818;8.632;2023-04-01T14:39:43;14.70;94.10
23231;DHT22;11784;49.818;8.632;2023-04-01T14:50:45;14.70;93.80
23231;DHT22;11784;49.818;8.632;2023-04-01T14:53:27;14.70;93.40
23231;DHT22;11784;49.818;8.632;2023-04-01T14:55:59;14.70;93.50
23231;DHT22;11784;49.818;8.632;2023-04-01T14:58:43;14.70;93.60
23231;DHT22;11784;49.818;8.632;2023-04-01T15:01:35;14.70;93.70
23231;DHT22;11784;49.818;8.632;2023-04-01T15:10:24;14.80;93.10
23231;DHT22;11784;49.818;8.632;2023-04-01T15:13:15;14.80;93.50
23231;DHT22;11784;49.818;8.632;2023-04-01T15:16:19;14.80;93.50
23231;DHT22;11784;49.818;8.632;2023-04-01T15:19:08;14.80;93.30
23231;DHT22;11784;49.818;8.632;2023-04-01T15:22:13;14.80;93.20
23231;DHT22;11784;49.818;8.632;2023-04-01T15:33:23;14.80;92.80
23231;DHT22;11784;49.818;8.632;2023-04-01T15:36:13;14.80;92.50
23231;DHT22;11784;49.818;8.632;2023-04-01T15:41:35;14.90;92.50
23231;DHT22;11784;49.818;8.632;2023-04-01T15:44:04;15.00;92.10
23231;DHT22;11784;49.818;8.632;2023-04-01T15:46:49;15.00;92.10
23231;DHT22;11784;49.818;8.632;2023-04-01T15:52:15;15.00;91.30
23231;DHT22;11784;49.818;8.632;2023-04-01T15:55:11;15.00;91.50
23231;DHT22;11784;49.818;8.632;2023-04-01T16:00:27;15.00;90.90
23231;DHT22;11784;49.818;8.632;2023-04-01T16:05:30;15.00;90.40
23231;DHT22;11784;49.818;8.632;2023-04-01T16:11:28;14.90;90.70
23231;DHT22;11784;49.818;8.632;2023-04-01T16:14:18;14.90;90.60
23231;DHT22;11784;49.818;8.632;2023-04-01T16:28:31;14.90;89.50
23231;DHT22;11784;49.818;8.632;2023-04-01T16:30:55;14.80;89.40
23231;DHT22;11784;49.818;8.632;2023-04-01T16:33:32;14.80;89.40
23231;DHT22;11784;49.818;8.632;2023-04-01T16:36:26;14.70;89.20
23231;DHT22;11784;49.818;8.632;2023-04-01T16:39:08;14.70;89.50
23231;DHT22;11784;49.818;8.632;2023-04-01T16:41:42;14.70;89.20
23231;DHT22;11784;49.818;8.632;2023-04-01T16:44:25;14.60;90.00
23231;DHT22;11784;49.818;8.632;2023-04-01T16:46:58;14.60;89.10
23231;DHT22;11784;49.818;8.632;2023-04-01T16:49:32;14.50;88.40
23231;DHT22;11784;49.818;8.632;2023-04-01T16:57:34;14.50;89.90
23231;DHT22;11784;49.818;8.632;2023-04-01T17:03:12;14.40;90.10
23231;DHT22;11784;49.818;8.632;2023-04-01T17:05:52;14.40;89.40
23231;DHT22;11784;49.818;8.632;2023-04-01T17:11:19;14.40;89.10
23231;DHT22;11784;49.818;8.632;2023-04-01T17:22:07;14.40;89.30
23231;DHT22;11784;49.818;8.632;2023-04-01T17:24:48;14.30;88.80
23231;DHT22;11784;49.818;8.632;2023-04-01T17:35:22;14.20;88.40
23231;DHT22;11784;49.818;8.632;2023-04-01T17:41:03;14.20;87.70
23231;DHT22;11784;49.818;8.632;2023-04-01T17:43:54;14.20;88.40
23231;DHT22;11784;49.818;8.632;2023-04-01T17:46:30;14.20;88.10
23231;DHT22;11784;49.818;8.632;2023-04-01T17:49:10;14.20;88.20
23231;DHT22;11784;49.818;8.632;2023-04-01T17:51:49;14.10;88.30
23231;DHT22;11784;49.818;8.632;2023-04-01T18:00:14;14.10;88.90
23231;DHT22;11784;49.818;8.632;2023-04-01T18:22:22;14.10;89.10
23231;DHT22;11784;49.818;8.632;2023-04-01T18:27:24;14.00;89.80
23231;DHT22;11784;49.818;8.632;2023-04-01T18:30:00;14.00;90.00
23231;DHT22;11784;49.818;8.632;2023-04-01T18:35:41;14.00;88.70
23231;DHT22;11784;49.818;8.632;2023-04-01T18:38:28;14.00;88.80
23231;DHT22;11784;49.818;8.632;2023-04-01T18:43:54;14.00;89.30
23231;DHT22;11784;49.818;8.632;2023-04-01T18:50:02;14.00;88.60
23231;DHT22;11784;49.818;8.632;2023-04-01T19:00:48;14.00;87.80
23231;DHT22;11784;49.818;8.632;2023-04-01T19:03:25;14.00;88.50
23231;DHT22;11784;49.818;8.632;2023-04-01T19:05:56;14.00;88.30
23231;DHT22;11784;49.818;8.632;2023-04-01T19:08:30;14.00;88.20
23231;DHT22;11784;49.818;8.632;2023-04-01T19:11:33;14.00;88.60
23231;DHT22;11784;49.818;8.632;2023-04-01T19:14:28;14.00;88.50
23231;DHT22;11784;49.818;8.632;2023-04-01T19:23:31;14.00;88.30
23231;DHT22;11784;49.818;8.632;2023-04-01T19:26:11;14.00;88.00
23231;DHT22;11784;49.818;8.632;2023-04-01T19:28:46;14.00;88.20
23231;DHT22;11784;49.818;8.632;2023-04-01T19:34:14;14.00;88.10
23231;DHT22;11784;49.818;8.632;2023-04-01T19:36:52;14.00;88.20
23231;DHT22;11784;49.818;8.632;2023-04-01T19:44:37;14.00;88.30
23231;DHT22;11784;49.818;8.632;2023-04-01T19:50:34;14.00;88.50
23231;DHT22;11784;49.818;8.632;2023-04-01T20:00:58;14.00;88.30
23231;DHT22;11784;49.818;8.632;2023-04-01T20:06:38;14.00;88.20
23231;DHT22;11784;49.818;8.632;2023-04-01T20:15:03;14.00;87.70
23231;DHT22;11784;49.818;8.632;2023-04-01T20:17:40;14.00;87.70
23231;DHT22;11784;49.818;8.632;2023-04-01T20:25:33;14.00;88.50
23231;DHT22;11784;49.818;8.632;2023-04-01T20:28:11;14.00;88.10
23231;DHT22;11784;49.818;8.632;2023-04-01T20:30:55;14.00;88.00
23231;DHT22;11784;49.818;8.632;2023-04-01T20:44:12;14.00;88.20
23231;DHT22;11784;49.818;8.632;2023-04-01T20:46:56;14.00;88.10
23231;DHT22;11784;49.818;8.632;2023-04-01T21:03:10;13.90;87.90
23231;DHT22;11784;49.818;8.632;2023-04-01T21:05:51;13.90;88.20
23231;DHT22;11784;49.818;8.632;2023-04-01T21:14:27;14.00;88.80
23231;DHT22;11784;49.818;8.632;2023-04-01T21:17:08;13.90;88.80
23231;DHT22;11784;49.818;8.632;2023-04-01T21:19:44;13.90;88.50
23231;DHT22;11784;49.818;8.632;2023-04-01T21:22:41;13.90;88.50
23231;DHT22;11784;49.818;8.632;2023-04-01T21:28:24;13.90;88.20
23231;DHT22;11784;49.818;8.632;2023-04-01T21:34:25;13.90;88.80
23231;DHT22;11784;49.818;8.632;2023-04-01T21:37:08;13.90;89.30
23231;DHT22;11784;49.818;8.632;2023-04-01T21:42:53;13.90;88.90
23231;DHT22;11784;49.818;8.632;2023-04-01T21:57:10;14.00;88.70
23231;DHT22;11784;49.818;8.632;2023-04-01T22:10:33;13.90;89.20
23231;DHT22;11784;49.818;8.632;2023-04-01T22:18:34;13.90;89.30
23231;DHT22;11784;49.818;8.632;2023-04-01T22:23:48;13.90;89.30
23231;DHT22;11784;49.818;8.632;2023-04-01T22:26:24;13.90;89.10
23231;DHT22;11784;49.818;8.632;2023-04-01T22:28:57;13.90;89.40
23231;DHT22;11784;49.818;8.632;2023-04-01T22:31:31;13.90;89.70
23231;DHT22;11784;49.818;8.632;2023-04-01T22:37:05;13.90;89.80
23231;DHT22;11784;49.818;8.632;2023-04-01T22:42:56;13.90;89.80
23231;DHT22;11784;49.818;8.632;2023-04-01T22:48:35;13.90;90.00
23231;DHT22;11784;49.818;8.632;2023-04-01T22:54:22;13.90;90.40
23231;DHT22;11784;49.818;8.632;2023-04-01T22:56:55;13.90;90.80
23231;DHT22;11784;49.818;8.632;2023-04-01T22:59:26;13.90;91.20
23231;DHT22;11784;49.818;8.632;2023-04-01T23:02:11;13.80;91.50
23231;DHT22;11784;49.818;8.632;2023-04-01T23:04:40;13.80;91.80
23231;DHT22;11784;49.818;8.632;2023-04-01T23:10:41;13.80;92.30
23231;DHT22;11784;49.818;8.632;2023-04-01T23:13:13;13.80;92.60
23231;DHT22;11784;49.818;8.632;2023-04-01T23:15:41;13.70;92.80
23231;DHT22;11784;49.818;8.632;2023-04-01T23:21:31;13.80;93.10
23231;DHT22;11784;49.818;8.632;2023-04-01T23:24:17;13.70;93.20
23231;DHT22;11784;49.818;8.632;2023-04-01T23:26:54;13.70;93.30
23231;DHT22;11784;49.818;8.632;2023-04-01T23:29:22;13.70;93.40
23231;DHT22;11784;49.818;8.632;2023-04-01T23:31:59;13.70;93.50
23231;DHT22;11784;49.818;8.632;2023-04-01T23:34:28;13.60;93.60
23231;DHT22;11784;49.818;8.632;2023-04-01T23:37:12;13.60;93.80
23231;DHT22;11784;49.818;8.632;2023-04-01T23:39:40;13.60;93.90
23231;DHT22;11784;49.818;8.632;2023-04-01T23:42:14;13.60;94.10
23231;DHT22;11784;49.818;8.632;2023-04-01T23:44:41;13.60;94.10
23231;DHT22;11784;49.818;8.632;2023-04-01T23:47:14;13.60;94.00
23231;DHT22;11784;49.818;8.632;2023-04-01T23:50:13;13.60;94.10
23231;DHT22;11784;49.818;8.632;2023-04-01T23:52:43;13.60;94.30
23231;DHT22;11784;49.818;8.632;2023-04-01T23:55:21;13.60;94.30
